createdAt,value
2018-01-22T00:02:21.911Z,2.67
2018-01-22T00:04:50.487Z,4.43
2018-01-22T00:07:18.812Z,6.37
2018-01-22T00:09:47.236Z,11.90
2018-01-22T00:12:19.333Z,5.93
2018-01-22T00:14:47.718Z,37.30
2018-01-22T00:17:17.429Z,10.63
2018-01-22T00:19:45.781Z,15.93
2018-01-22T00:22:14.148Z,15.07
2018-01-22T00:24:43.452Z,11.53
2018-01-22T00:27:11.931Z,17.43
2018-01-22T00:29:40.193Z,32.37
2018-01-22T00:32:08.686Z,18.97
2018-01-22T00:34:45.722Z,15.20
2018-01-22T00:37:14.145Z,5.37
2018-01-22T00:39:42.627Z,15.67
2018-01-22T00:42:11.015Z,14.07
2018-01-22T00:44:40.207Z,10.10
2018-01-22T00:47:08.496Z,7.53
2018-01-22T00:49:47.815Z,5.07
2018-01-22T00:52:22.234Z,9.60
2018-01-22T00:54:50.613Z,3.67
2018-01-22T00:57:18.919Z,2.87
2018-01-22T00:59:47.274Z,7.87
2018-01-22T01:02:15.852Z,2.73
2018-01-22T01:04:45.052Z,2.70
2018-01-22T01:07:13.335Z,5.03
2018-01-22T01:09:41.755Z,7.57
2018-01-22T01:12:10.184Z,2.00
2018-01-22T01:14:38.670Z,7.03
2018-01-22T01:17:06.946Z,8.17
2018-01-22T01:19:35.318Z,5.43
2018-01-22T01:22:03.800Z,11.77
2018-01-22T01:24:32.222Z,10.90
2018-01-22T01:27:00.531Z,4.40
2018-01-22T01:29:29.672Z,5.03
2018-01-22T01:31:58.058Z,9.20
2018-01-22T01:34:26.511Z,4.87
2018-01-22T01:36:54.996Z,4.43
2018-01-22T01:39:37.220Z,10.17
2018-01-22T01:42:09.364Z,4.77
2018-01-22T01:44:37.776Z,4.33
2018-01-22T01:47:06.229Z,9.27
2018-01-22T01:49:35.657Z,5.00
2018-01-22T01:52:04.822Z,5.70
2018-01-22T01:54:33.111Z,2.90
2018-01-22T01:57:01.673Z,10.70
2018-01-22T01:59:31.062Z,2.37
2018-01-22T02:02:01.532Z,1.23
2018-01-22T02:04:30.657Z,4.00
2018-01-22T02:06:58.957Z,6.13
2018-01-22T02:09:28.606Z,6.20
2018-01-22T02:11:57.074Z,1.07
2018-01-22T02:14:33.225Z,3.30
2018-01-22T02:17:01.551Z,1.57
2018-01-22T02:19:29.867Z,0.90
2018-01-22T02:21:59.238Z,3.27
2018-01-22T02:24:27.668Z,3.80
2018-01-22T02:26:55.958Z,4.87
2018-01-22T02:29:24.320Z,3.23
2018-01-22T02:31:52.802Z,2.70
2018-01-22T02:34:21.090Z,4.30
2018-01-22T02:36:49.378Z,6.30
2018-01-22T02:39:17.768Z,4.73
2018-01-22T02:41:47.136Z,3.53
2018-01-22T02:44:15.440Z,6.37
2018-01-22T02:46:43.841Z,4.43
2018-01-22T02:49:13.654Z,5.60
2018-01-22T02:51:42.188Z,15.83
2018-01-22T02:54:11.591Z,21.20
2018-01-22T02:56:40.379Z,11.83
2018-01-22T02:59:15.248Z,8.33
2018-01-22T03:01:43.538Z,3.00
2018-01-22T03:04:11.884Z,10.63
2018-01-22T03:06:45.394Z,13.33
2018-01-22T03:09:13.728Z,5.77
2018-01-22T03:11:42.032Z,7.83
2018-01-22T03:14:10.711Z,4.10
2018-01-22T03:16:39.098Z,7.23
2018-01-22T03:19:07.497Z,10.93
2018-01-22T03:21:39.679Z,4.60
2018-01-22T03:24:08.515Z,7.00
2018-01-22T03:26:39.554Z,6.10
2018-01-22T03:29:07.933Z,21.67
2018-01-22T03:31:36.215Z,6.17
2018-01-22T03:34:05.076Z,7.23
2018-01-22T03:36:35.324Z,6.07
2018-01-22T03:39:03.806Z,4.23
2018-01-22T03:41:32.181Z,4.00
2018-01-22T03:44:07.310Z,7.97
2018-01-22T03:46:35.732Z,4.93
2018-01-22T03:49:04.924Z,3.17
2018-01-22T03:51:33.377Z,3.90
2018-01-22T03:54:08.931Z,6.07
2018-01-22T03:56:40.559Z,3.70
2018-01-22T03:59:11.449Z,3.20
2018-01-22T04:01:45.850Z,10.43
2018-01-22T04:04:18.417Z,10.30
2018-01-22T04:06:50.440Z,22.77
2018-01-22T04:09:20.393Z,32.47
2018-01-22T04:11:50.959Z,9.47
2018-01-22T04:14:32.068Z,13.67
2018-01-22T04:17:02.216Z,12.40
2018-01-22T04:19:31.010Z,8.07
2018-01-22T04:22:04.352Z,3.17
2018-01-22T04:24:37.494Z,6.17
2018-01-22T04:27:06.725Z,5.93
2018-01-22T04:29:37.022Z,8.63
2018-01-22T04:32:05.944Z,5.00
2018-01-22T04:34:38.935Z,7.10
2018-01-22T04:37:11.414Z,2.10
2018-01-22T04:39:51.085Z,5.03
2018-01-22T04:42:20.419Z,10.43
2018-01-22T04:44:52.680Z,7.63
2018-01-22T04:47:21.160Z,9.60
2018-01-22T04:49:51.747Z,15.73
2018-01-22T04:52:21.190Z,3.33
2018-01-22T04:54:53.715Z,2.53
2018-01-22T04:57:25.118Z,2.93
2018-01-22T04:59:53.413Z,2.57
2018-01-22T05:02:21.879Z,3.80
2018-01-22T05:04:50.361Z,5.80
2018-01-22T05:07:19.462Z,6.17
2018-01-22T05:09:47.762Z,4.33
2018-01-22T05:12:16.209Z,3.50
2018-01-22T05:14:44.608Z,7.17
2018-01-22T05:17:12.880Z,5.07
2018-01-22T05:19:42.172Z,9.60
2018-01-22T05:22:10.436Z,4.30
2018-01-22T05:24:38.916Z,3.37
2018-01-22T05:27:07.195Z,5.60
2018-01-22T05:29:35.479Z,7.80
2018-01-22T05:32:03.949Z,7.23
2018-01-22T05:34:38.578Z,2.20
2018-01-22T05:37:06.955Z,3.13
2018-01-22T05:39:35.259Z,12.17
2018-01-22T05:42:03.815Z,2.20
2018-01-22T05:44:32.396Z,3.67
2018-01-22T05:47:00.875Z,19.23
2018-01-22T05:49:29.360Z,15.43
2018-01-22T05:51:57.720Z,11.13
2018-01-22T05:54:26.054Z,13.03
2018-01-22T05:56:54.390Z,19.77
2018-01-22T05:59:22.876Z,11.70
2018-01-22T06:01:51.292Z,27.60
2018-01-22T06:04:20.402Z,33.70
2018-01-22T06:06:49.472Z,22.37
2018-01-22T06:09:18.231Z,18.37
2018-01-22T06:11:52.750Z,23.43
2018-01-22T06:14:21.079Z,16.27
2018-01-22T06:16:50.227Z,6.70
2018-01-22T06:19:18.737Z,6.13
2018-01-22T06:21:47.802Z,3.70
2018-01-22T06:24:17.625Z,4.43
2018-01-22T06:26:45.917Z,8.63
2018-01-22T06:29:20.057Z,4.23
2018-01-22T06:31:48.342Z,11.10
2018-01-22T06:34:16.791Z,9.67
2018-01-22T06:36:45.342Z,24.13
2018-01-22T06:39:13.639Z,9.27
2018-01-22T06:41:41.920Z,3.30
2018-01-22T06:44:10.378Z,5.80
2018-01-22T06:46:38.647Z,1.47
2018-01-22T06:49:09.993Z,1.33
2018-01-22T06:51:39.060Z,2.40
2018-01-22T06:54:08.124Z,11.83
2018-01-22T06:56:36.569Z,16.67
2018-01-22T06:59:09.964Z,3.60
2018-01-22T07:01:38.444Z,6.40
2018-01-22T07:04:06.756Z,9.00
2018-01-22T07:06:35.202Z,10.50
2018-01-22T07:09:03.978Z,7.17
2018-01-22T07:11:32.343Z,10.10
2018-01-22T07:14:01.618Z,14.87
2018-01-22T07:16:30.052Z,13.57
2018-01-22T07:18:58.458Z,10.20
2018-01-22T07:21:26.815Z,22.03
2018-01-22T07:23:55.177Z,14.57
2018-01-22T07:26:24.887Z,24.27
2018-01-22T07:28:53.321Z,13.57
2018-01-22T07:31:24.001Z,9.67
2018-01-22T07:33:52.448Z,6.13
2018-01-22T07:36:20.895Z,6.40
2018-01-22T07:38:59.295Z,5.50
2018-01-22T07:41:28.472Z,4.07
2018-01-22T07:43:56.843Z,10.10
2018-01-22T07:46:25.235Z,5.10
2018-01-22T07:48:53.644Z,5.10
2018-01-22T07:51:29.550Z,6.30
2018-01-22T07:53:58.000Z,8.60
2018-01-22T07:56:26.452Z,8.90
2018-01-22T07:58:54.894Z,7.33
2018-01-22T08:01:24.558Z,14.10
2018-01-22T08:03:53.839Z,10.17
2018-01-22T08:06:22.328Z,7.60
2018-01-22T08:08:51.431Z,10.33
2018-01-22T08:11:19.781Z,10.30
2018-01-22T08:13:48.180Z,5.47
2018-01-22T08:16:22.567Z,3.40
2018-01-22T08:18:51.696Z,2.67
2018-01-22T08:21:20.804Z,6.30
2018-01-22T08:23:50.091Z,4.33
2018-01-22T08:26:18.527Z,4.50
2018-01-22T08:28:46.906Z,4.50
2018-01-22T08:31:15.607Z,3.23
2018-01-22T08:33:44.093Z,3.97
2018-01-22T08:36:14.243Z,3.93
2018-01-22T08:38:42.634Z,2.90
2018-01-22T08:41:11.022Z,3.17
2018-01-22T08:43:39.403Z,8.07
2018-01-22T08:46:16.084Z,4.43
2018-01-22T08:48:44.525Z,8.27
2018-01-22T08:51:12.942Z,10.17
2018-01-22T08:53:41.847Z,1.87
2018-01-22T08:56:10.278Z,1.90
2018-01-22T08:58:39.407Z,5.27
2018-01-22T09:01:07.799Z,3.53
2018-01-22T09:03:36.164Z,10.07
2018-01-22T09:06:04.513Z,7.33
2018-01-22T09:08:33.825Z,5.40
2018-01-22T09:11:03.012Z,5.10
2018-01-22T09:13:44.273Z,3.97
2018-01-22T09:16:12.653Z,3.60
2018-01-22T09:18:41.058Z,5.83
2018-01-22T09:21:09.528Z,4.80
2018-01-22T09:23:46.399Z,1.57
2018-01-22T09:26:15.569Z,4.93
2018-01-22T09:28:43.957Z,2.93
2018-01-22T09:31:12.337Z,3.53
2018-01-22T09:33:40.783Z,4.00
2018-01-22T09:36:09.188Z,4.30
2018-01-22T09:38:37.563Z,3.33
2018-01-22T09:41:06.588Z,3.43
2018-01-22T09:43:35.184Z,3.73
2018-01-22T09:46:04.328Z,5.07
2018-01-22T09:48:32.732Z,5.73
2018-01-22T09:51:01.178Z,5.67
2018-01-22T09:53:36.447Z,4.00
2018-01-22T09:56:04.816Z,4.60
2018-01-22T09:58:33.301Z,1.70
2018-01-22T10:01:01.747Z,6.07
2018-01-22T10:03:30.240Z,6.47
2018-01-22T10:05:58.639Z,3.37
2018-01-22T10:08:27.167Z,3.60
2018-01-22T10:10:56.261Z,5.23
2018-01-22T10:13:25.806Z,2.23
2018-01-22T10:15:54.207Z,2.33
2018-01-22T10:18:22.745Z,2.03
2018-01-22T10:20:51.139Z,3.03
2018-01-22T10:23:19.544Z,1.90
2018-01-22T10:25:47.927Z,5.33
2018-01-22T10:28:16.717Z,8.73
2018-01-22T10:30:51.261Z,5.80
2018-01-22T10:33:25.737Z,1.97
2018-01-22T10:35:54.136Z,3.43
2018-01-22T10:38:22.529Z,4.23
2018-01-22T10:40:50.923Z,5.40
2018-01-22T10:43:33.516Z,7.82
2018-01-22T10:46:03.808Z,5.10
2018-01-22T10:48:32.119Z,10.70
2018-01-22T10:51:00.522Z,5.80
2018-01-22T10:53:30.480Z,7.40
2018-01-22T10:56:10.077Z,8.85
2018-01-22T10:58:38.556Z,4.18
2018-01-22T11:01:15.537Z,5.50
2018-01-22T11:03:52.167Z,4.72
2018-01-22T11:06:31.055Z,5.28
2018-01-22T11:08:59.635Z,10.25
2018-01-22T11:11:28.108Z,4.05
2018-01-22T11:14:04.886Z,9.70
2018-01-22T11:16:33.996Z,6.10
2018-01-22T11:19:02.397Z,8.45
2018-01-22T11:21:30.811Z,8.35
2018-01-22T11:23:59.764Z,4.87
2018-01-22T11:26:40.409Z,6.22
2018-01-22T11:29:08.799Z,18.62
2018-01-22T11:31:37.274Z,8.80
2018-01-22T11:34:05.676Z,6.75
2018-01-22T11:36:42.051Z,2.12
2018-01-22T11:39:11.285Z,4.78
2018-01-22T11:41:40.884Z,3.78
2018-01-22T11:44:09.454Z,5.82
2018-01-22T11:46:37.852Z,3.87
2018-01-22T11:49:06.208Z,9.95
2018-01-22T11:51:37.892Z,6.53
2018-01-22T11:54:07.049Z,5.07
2018-01-22T11:56:39.655Z,3.67
2018-01-22T11:59:08.919Z,2.95
2018-01-22T12:01:47.306Z,4.15
2018-01-22T12:04:15.903Z,6.28
2018-01-22T12:06:44.546Z,5.18
2018-01-22T12:09:17.854Z,8.52
2018-01-22T12:11:47.109Z,8.18
2018-01-22T12:14:15.884Z,14.98
2018-01-22T12:16:44.337Z,7.15
2018-01-22T12:19:12.969Z,10.10
2018-01-22T12:21:41.538Z,3.33
2018-01-22T12:24:09.944Z,2.03
2018-01-22T12:26:39.209Z,3.25
2018-01-22T12:29:07.585Z,2.67
2018-01-22T12:31:35.997Z,3.78
2018-01-22T12:34:05.146Z,8.35
2018-01-22T12:36:33.507Z,5.57
2018-01-22T12:39:01.925Z,2.22
2018-01-22T12:41:30.735Z,5.28
2018-01-22T12:43:59.195Z,14.25
2018-01-22T12:46:27.612Z,7.12
2018-01-22T12:48:56.800Z,4.57
2018-01-22T12:51:25.204Z,3.97
2018-01-22T12:53:54.342Z,12.63
2018-01-22T12:56:22.791Z,15.07
2018-01-22T12:58:51.283Z,13.35
2018-01-22T13:01:19.848Z,7.60
2018-01-22T13:03:48.301Z,7.05
2018-01-22T13:06:17.481Z,4.70
2018-01-22T13:08:46.029Z,7.43
2018-01-22T13:11:14.978Z,6.12
2018-01-22T13:13:43.410Z,7.35
2018-01-22T13:16:11.793Z,7.85
2018-01-22T13:18:40.237Z,4.43
2018-01-22T13:21:08.666Z,7.68
2018-01-22T13:23:37.392Z,7.05
2018-01-22T13:26:12.578Z,4.15
2018-01-22T13:28:41.011Z,5.90
2018-01-22T13:31:10.791Z,5.20
2018-01-22T13:33:39.207Z,7.20
2018-01-22T13:36:08.342Z,5.97
2018-01-22T13:38:36.715Z,9.10
2018-01-22T13:41:10.593Z,7.32
2018-01-22T13:43:39.751Z,8.15
2018-01-22T13:46:09.794Z,3.15
2018-01-22T13:48:40.512Z,3.92
2018-01-22T13:51:09.102Z,3.33
2018-01-22T13:53:38.587Z,8.20
2018-01-22T13:56:07.455Z,2.50
2018-01-22T13:58:35.923Z,7.22
2018-01-22T14:01:04.564Z,6.30
2018-01-22T14:03:47.176Z,10.27
2018-01-22T14:06:16.322Z,6.47
2018-01-22T14:08:44.706Z,7.72
2018-01-22T14:11:13.086Z,4.57
2018-01-22T14:13:41.423Z,2.08
2018-01-22T14:16:10.568Z,2.78
2018-01-22T14:18:39.199Z,3.22
2018-01-22T14:21:08.336Z,2.92
2018-01-22T14:23:37.496Z,3.47
2018-01-22T14:26:06.922Z,10.00
2018-01-22T14:28:35.951Z,2.80
2018-01-22T14:31:04.633Z,8.73
2018-01-22T14:33:33.050Z,6.32
2018-01-22T14:36:01.423Z,2.90
2018-01-22T14:38:30.904Z,2.83
2018-01-22T14:41:00.121Z,4.37
2018-01-22T14:43:28.517Z,4.03
2018-01-22T14:46:02.723Z,4.18
2018-01-22T14:48:35.674Z,4.43
2018-01-22T14:51:04.969Z,6.85
2018-01-22T14:53:33.616Z,6.95
2018-01-22T14:56:02.239Z,7.87
2018-01-22T14:58:32.124Z,8.65
2018-01-22T15:01:00.935Z,2.45
2018-01-22T15:03:35.903Z,14.40
2018-01-22T15:06:05.992Z,11.23
2018-01-22T15:08:34.802Z,8.15
2018-01-22T15:11:03.314Z,11.45
2018-01-22T15:13:33.664Z,4.33
2018-01-22T15:16:03.852Z,8.57
2018-01-22T15:18:32.346Z,5.47
2018-01-22T15:21:01.626Z,3.97
2018-01-22T15:23:31.496Z,5.80
2018-01-22T15:25:59.982Z,8.57
2018-01-22T15:28:28.819Z,11.53
2018-01-22T15:30:57.219Z,10.77
2018-01-22T15:33:26.551Z,5.73
2018-01-22T15:35:55.012Z,6.87
2018-01-22T15:38:24.950Z,8.93
2018-01-22T15:40:53.548Z,6.17
2018-01-22T15:43:21.958Z,4.60
2018-01-22T15:45:52.780Z,4.80
2018-01-22T15:48:21.277Z,3.47
2018-01-22T15:50:51.718Z,5.60
2018-01-22T15:53:20.483Z,16.90
2018-01-22T15:55:55.408Z,11.07
2018-01-22T15:58:24.005Z,13.37
2018-01-22T16:00:54.334Z,9.07
2018-01-22T16:03:23.613Z,6.97
2018-01-22T16:05:53.329Z,8.70
2018-01-22T16:08:21.772Z,5.27
2018-01-22T16:10:50.173Z,8.70
2018-01-22T16:13:18.585Z,4.87
2018-01-22T16:15:47.022Z,7.60
2018-01-22T16:18:15.558Z,5.10
2018-01-22T16:20:48.673Z,9.77
2018-01-22T16:23:19.110Z,6.53
2018-01-22T16:25:48.058Z,6.37
2018-01-22T16:28:16.445Z,9.17
2018-01-22T16:30:45.600Z,9.60
2018-01-22T16:33:14.466Z,4.97
2018-01-22T16:35:43.900Z,8.17
2018-01-22T16:38:12.289Z,4.33
2018-01-22T16:40:41.514Z,5.03
2018-01-22T16:43:11.637Z,10.57
2018-01-22T16:45:40.034Z,3.67
2018-01-22T16:48:08.881Z,14.53
2018-01-22T16:50:50.701Z,8.77
2018-01-22T16:53:21.621Z,10.20
2018-01-22T16:55:51.594Z,16.13
2018-01-22T16:58:20.808Z,6.00
2018-01-22T17:00:49.403Z,17.50
2018-01-22T17:03:17.925Z,8.70
2018-01-22T17:05:46.692Z,10.23
2018-01-22T17:08:15.489Z,7.90
2018-01-22T17:10:45.022Z,11.93
2018-01-22T17:13:13.644Z,8.00
2018-01-22T17:15:47.515Z,4.13
2018-01-22T17:18:16.991Z,6.77
2018-01-22T17:20:45.819Z,21.80
2018-01-22T17:23:14.531Z,22.00
2018-01-22T17:25:43.262Z,21.67
2018-01-22T17:28:13.056Z,24.43
2018-01-22T17:30:56.574Z,26.20
2018-01-22T17:33:26.710Z,15.70
2018-01-22T17:35:56.065Z,15.73
2018-01-22T17:38:24.753Z,13.37
2018-01-22T17:41:00.901Z,16.43
2018-01-22T17:43:30.905Z,10.63
2018-01-22T17:45:59.568Z,14.43
2018-01-22T17:48:28.098Z,17.90
2018-01-22T17:50:57.936Z,12.70
2018-01-22T17:53:27.919Z,10.37
2018-01-22T17:55:57.796Z,8.43
2018-01-22T17:58:26.703Z,15.70
2018-01-22T18:01:03.168Z,11.77
2018-01-22T18:03:32.111Z,5.43
2018-01-22T18:06:01.022Z,17.07
2018-01-22T18:08:29.993Z,12.53
2018-01-22T18:10:58.840Z,19.27
2018-01-22T18:13:27.955Z,18.20
2018-01-22T18:15:56.986Z,17.20
2018-01-22T18:18:25.654Z,9.03
2018-01-22T18:20:54.306Z,16.53
2018-01-22T18:23:23.173Z,12.60
2018-01-22T18:25:52.658Z,16.03
2018-01-22T18:28:21.661Z,16.47
2018-01-22T18:30:51.341Z,17.67
2018-01-22T18:33:22.851Z,22.10
2018-01-22T18:35:52.444Z,12.93
2018-01-22T18:38:21.291Z,10.40
2018-01-22T18:40:50.268Z,9.90
2018-01-22T18:43:18.809Z,8.20
2018-01-22T18:45:48.883Z,8.07
2018-01-22T18:48:18.053Z,10.60
2018-01-22T18:50:47.186Z,6.03
2018-01-22T18:53:20.429Z,13.60
2018-01-22T18:55:50.823Z,11.90
2018-01-22T18:58:20.803Z,8.20
2018-01-22T19:00:52.036Z,13.30
2018-01-22T19:03:23.155Z,3.57
2018-01-22T19:05:52.531Z,25.43
2018-01-22T19:08:21.536Z,39.57
2018-01-22T19:10:50.366Z,23.20
2018-01-22T19:13:19.386Z,37.50
2018-01-22T19:15:48.712Z,22.50
2018-01-22T19:18:19.659Z,28.33
2018-01-22T19:20:49.057Z,25.83
2018-01-22T19:23:17.661Z,27.53
2018-01-22T19:25:46.147Z,28.13
2018-01-22T19:28:16.192Z,17.40
2018-01-22T19:30:47.224Z,28.00
2018-01-22T19:33:15.866Z,31.50
2018-01-22T19:35:45.942Z,10.23
2018-01-22T19:38:14.742Z,11.03
2018-01-22T19:40:44.470Z,25.33
2018-01-22T19:43:13.936Z,19.93
2018-01-22T19:45:43.826Z,13.90
2018-01-22T19:48:12.441Z,8.90
2018-01-22T19:50:41.658Z,3.93
2018-01-22T19:53:10.857Z,3.93
2018-01-22T19:55:39.818Z,4.07
2018-01-22T19:58:08.563Z,3.33
2018-01-22T20:00:45.831Z,3.60
2018-01-22T20:03:14.384Z,6.30
2018-01-22T20:05:42.956Z,3.57
2018-01-22T20:08:11.561Z,4.40
2018-01-22T20:10:40.240Z,6.77
2018-01-22T20:13:25.770Z,6.27
2018-01-22T20:15:55.494Z,5.80
2018-01-22T20:21:04.620Z,3.60
2018-01-22T20:23:33.301Z,4.43
2018-01-22T20:26:06.716Z,11.17
2018-01-22T20:28:45.239Z,8.83
2018-01-22T20:31:15.605Z,7.33
2018-01-22T20:33:50.673Z,7.17
2018-01-22T20:36:25.221Z,7.03
2018-01-22T20:38:56.400Z,4.70
2018-01-22T20:41:26.697Z,3.10
2018-01-22T20:43:56.961Z,2.77
2018-01-22T20:46:25.767Z,2.70
2018-01-22T20:49:07.800Z,2.80
2018-01-22T20:51:37.259Z,4.50
2018-01-22T20:54:06.574Z,4.93
2018-01-22T20:56:36.108Z,10.73
2018-01-22T20:59:07.205Z,4.53
2018-01-22T21:01:40.408Z,9.13
2018-01-22T21:04:13.117Z,2.70
2018-01-22T21:06:46.588Z,1.87
2018-01-22T21:09:18.194Z,2.47
2018-01-22T21:11:49.428Z,2.83
2018-01-22T21:14:30.259Z,6.60
2018-01-22T21:17:00.507Z,3.47
2018-01-22T21:19:29.200Z,8.13
2018-01-22T21:21:57.705Z,6.37
2018-01-22T21:24:26.008Z,7.43
2018-01-22T21:26:54.426Z,12.73
2018-01-22T21:29:23.251Z,4.73
2018-01-22T21:31:58.213Z,7.33
2018-01-22T21:34:28.152Z,12.87
2018-01-22T21:36:56.904Z,8.60
2018-01-22T21:39:26.817Z,11.13
2018-01-22T21:41:55.399Z,4.77
2018-01-22T21:44:23.711Z,8.47
2018-01-22T21:47:01.035Z,6.63
2018-01-22T21:49:30.452Z,7.73
2018-01-22T21:51:59.646Z,6.10
2018-01-22T21:54:28.038Z,7.47
2018-01-22T21:56:57.919Z,21.77
2018-01-22T21:59:26.699Z,22.03
2018-01-22T22:01:55.095Z,20.43
2018-01-22T22:04:23.814Z,17.70
2018-01-22T22:06:52.314Z,5.53
2018-01-22T22:09:21.487Z,5.03
2018-01-22T22:11:49.844Z,9.70
2018-01-22T22:14:18.894Z,8.43
2018-01-22T22:16:47.279Z,8.87
2018-01-22T22:19:15.760Z,10.60
2018-01-22T22:21:45.189Z,10.00
2018-01-22T22:24:15.053Z,12.33
2018-01-22T22:26:43.597Z,16.00
2018-01-22T22:29:25.799Z,15.33
2018-01-22T22:31:55.893Z,14.43
2018-01-22T22:34:24.975Z,22.40
2018-01-22T22:36:53.517Z,13.90
2018-01-22T22:39:21.860Z,9.60
2018-01-22T22:41:51.098Z,11.43
2018-01-22T22:44:19.920Z,14.63
2018-01-22T22:46:51.256Z,11.63
2018-01-22T22:49:20.740Z,10.63
2018-01-22T22:51:55.859Z,9.93
2018-01-22T22:54:25.227Z,8.90
2018-01-22T22:56:53.662Z,11.63
2018-01-22T22:59:23.159Z,9.17
2018-01-22T23:01:56.739Z,8.60
2018-01-22T23:04:25.209Z,7.73
2018-01-22T23:06:53.618Z,6.23
2018-01-22T23:09:36.872Z,6.47
2018-01-22T23:12:12.449Z,7.97
2018-01-22T23:14:41.081Z,6.50
2018-01-22T23:17:09.598Z,9.13
2018-01-22T23:19:38.044Z,6.57
2018-01-22T23:22:06.351Z,5.73
2018-01-22T23:24:35.291Z,9.17
2018-01-22T23:27:04.920Z,4.57
2018-01-22T23:29:33.397Z,6.73
2018-01-22T23:32:02.189Z,7.13
2018-01-22T23:34:30.666Z,16.53
2018-01-22T23:36:59.048Z,15.17
2018-01-22T23:39:28.171Z,13.47
2018-01-22T23:41:56.463Z,16.33
2018-01-22T23:44:27.436Z,18.80
2018-01-22T23:46:56.284Z,9.17
2018-01-22T23:49:24.776Z,7.73
2018-01-22T23:51:53.867Z,8.40
2018-01-22T23:54:23.806Z,8.87
2018-01-22T23:56:53.036Z,7.33
2018-01-22T23:59:27.357Z,7.63
